Terminal Aerodrome Forecast
Issued by NWS

Current Version | Previous Version | Text Only | Print | Product List | Glossary Off
Versions: 1 2 3 4 5 6 7 8 9 10 11 12 13 14 15 16 17 18 19 20 21

000
FTUS41 KILN 261730
TAFLUK
TAF
KLUK 261730Z 2618/2718 03004KT P6SM BKN050
     FM270200 00000KT P6SM SCT050
     FM270500 00000KT 3SM BR SCT050
      TEMPO 2707/2711 1SM BR
     FM271300 07004KT P6SM BKN045=

USA.gov is the U.S. government's official web portal to all federal, state and local government web resources and services.